createdAt,value
2018-06-17T00:01:56.452Z,7.03
2018-06-17T00:04:24.796Z,6.80
2018-06-17T00:06:53.111Z,6.83
2018-06-17T00:09:21.552Z,6.47
2018-06-17T00:11:49.900Z,7.57
2018-06-17T00:14:18.237Z,7.00
2018-06-17T00:16:46.547Z,7.23
2018-06-17T00:19:14.897Z,6.57
2018-06-17T00:21:43.212Z,7.27
2018-06-17T00:24:11.547Z,6.60
2018-06-17T00:26:39.868Z,7.23
2018-06-17T00:29:08.211Z,6.97
2018-06-17T00:31:36.527Z,7.07
2018-06-17T00:34:04.865Z,7.43
2018-06-17T00:36:33.180Z,7.13
2018-06-17T00:39:01.527Z,7.27
2018-06-17T00:41:29.841Z,7.57
2018-06-17T00:43:58.184Z,7.30
2018-06-17T00:46:26.517Z,7.20
2018-06-17T00:48:54.867Z,7.83
2018-06-17T00:51:23.184Z,7.50
2018-06-17T00:53:51.556Z,7.37
2018-06-17T00:56:19.598Z,7.77
2018-06-17T00:58:47.936Z,8.33
2018-06-17T01:01:16.259Z,8.17
2018-06-17T01:03:44.607Z,8.30
2018-06-17T01:06:12.928Z,8.00
2018-06-17T01:08:41.253Z,8.30
2018-06-17T01:11:09.621Z,7.80
2018-06-17T01:13:37.955Z,7.97
2018-06-17T01:16:06.303Z,8.33
2018-06-17T01:18:34.622Z,8.20
2018-06-17T01:21:02.994Z,7.77
2018-06-17T01:23:31.316Z,7.80
2018-06-17T01:26:03.879Z,7.73
2018-06-17T01:28:32.192Z,8.07
2018-06-17T01:31:00.528Z,8.13
2018-06-17T01:33:28.844Z,7.20
2018-06-17T01:35:57.200Z,7.50
2018-06-17T01:38:25.513Z,7.90
2018-06-17T01:40:53.861Z,7.13
2018-06-17T01:43:22.188Z,8.43
2018-06-17T01:45:50.535Z,7.33
2018-06-17T01:48:18.853Z,7.57
2018-06-17T01:50:47.184Z,7.03
2018-06-17T01:53:15.499Z,7.17
2018-06-17T01:55:43.855Z,6.97
2018-06-17T01:58:12.178Z,7.13
2018-06-17T02:00:40.266Z,7.40
2018-06-17T02:03:13.851Z,6.73
2018-06-17T02:05:47.475Z,7.30
2018-06-17T02:08:21.107Z,7.23
2018-06-17T02:10:54.956Z,7.37
2018-06-17T02:13:23.318Z,6.97
2018-06-17T02:15:51.660Z,6.93
2018-06-17T02:18:19.975Z,7.23
2018-06-17T02:20:48.316Z,8.03
2018-06-17T02:23:16.651Z,7.67
2018-06-17T02:25:45.024Z,9.00
2018-06-17T02:28:14.410Z,8.77
2018-06-17T02:30:42.744Z,8.63
2018-06-17T02:33:11.168Z,8.47
2018-06-17T02:35:39.692Z,9.20
2018-06-17T02:38:07.748Z,10.03
2018-06-17T02:40:36.096Z,10.33
2018-06-17T02:43:04.515Z,9.30
2018-06-17T02:45:38.029Z,9.97
2018-06-17T02:48:11.792Z,10.13
2018-06-17T02:50:45.540Z,11.40
2018-06-17T02:53:19.248Z,12.03
2018-06-17T02:55:47.604Z,11.47
2018-06-17T02:58:15.923Z,10.90
2018-06-17T03:00:44.283Z,11.37
2018-06-17T03:03:12.604Z,11.23
2018-06-17T03:05:40.956Z,11.97
2018-06-17T03:08:09.350Z,13.00
2018-06-17T03:10:37.736Z,12.90
2018-06-17T03:13:06.056Z,13.10
2018-06-17T03:15:34.159Z,12.40
2018-06-17T03:18:02.516Z,12.70
2018-06-17T03:20:30.573Z,12.43
2018-06-17T03:22:58.919Z,12.77
2018-06-17T03:25:32.513Z,13.23
2018-06-17T03:28:06.320Z,12.73
2018-06-17T03:30:39.949Z,12.67
2018-06-17T03:33:13.715Z,13.03
2018-06-17T03:35:47.358Z,13.17
2018-06-17T03:38:15.709Z,13.30
2018-06-17T03:40:44.045Z,12.93
2018-06-17T03:43:12.136Z,12.70
2018-06-17T03:45:40.484Z,13.47
2018-06-17T03:48:08.840Z,13.10
2018-06-17T03:50:37.160Z,13.43
2018-06-17T03:53:05.478Z,13.13
2018-06-17T03:55:33.795Z,13.93
2018-06-17T03:58:02.153Z,13.43
2018-06-17T04:00:30.467Z,14.53
2018-06-17T04:02:58.568Z,14.70
2018-06-17T04:05:28.289Z,14.57
2018-06-17T04:07:57.169Z,14.57
2018-06-17T04:10:25.543Z,14.97
2018-06-17T04:12:53.943Z,14.67
2018-06-17T04:15:22.299Z,15.17
2018-06-17T04:17:50.648Z,13.60
2018-06-17T04:20:19.002Z,13.83
2018-06-17T04:22:47.354Z,13.50
2018-06-17T04:25:15.690Z,13.90
2018-06-17T04:27:44.045Z,14.17
2018-06-17T04:30:12.372Z,13.40
2018-06-17T04:32:40.843Z,13.43
2018-06-17T04:35:08.903Z,13.33
2018-06-17T04:37:37.244Z,14.00
2018-06-17T04:40:05.691Z,14.67
2018-06-17T04:42:34.047Z,13.60
2018-06-17T04:45:02.107Z,13.43
2018-06-17T04:47:30.456Z,12.63
2018-06-17T04:49:58.774Z,13.50
2018-06-17T04:52:27.143Z,13.30
2018-06-17T04:54:55.468Z,12.20
2018-06-17T04:57:23.879Z,12.70
2018-06-17T04:59:52.199Z,13.37
2018-06-17T05:02:20.580Z,11.87
2018-06-17T05:04:48.642Z,12.57
2018-06-17T05:07:16.735Z,12.27
2018-06-17T05:09:44.832Z,11.83
2018-06-17T05:12:13.156Z,12.47
2018-06-17T05:14:41.543Z,12.00
2018-06-17T05:17:09.931Z,12.53
2018-06-17T05:19:38.250Z,11.07
2018-06-17T05:22:06.587Z,12.00
2018-06-17T05:24:34.993Z,11.50
2018-06-17T05:27:03.316Z,11.87
2018-06-17T05:29:31.655Z,11.93
2018-06-17T05:31:59.980Z,11.67
2018-06-17T05:34:28.323Z,11.67
2018-06-17T05:36:56.767Z,10.87
2018-06-17T05:39:24.846Z,10.93
2018-06-17T05:41:52.911Z,10.10
2018-06-17T05:44:20.995Z,9.90
2018-06-17T05:46:49.366Z,9.30
2018-06-17T05:49:17.458Z,10.00
2018-06-17T05:51:45.784Z,9.27
2018-06-17T05:54:14.137Z,9.20
2018-06-17T05:56:42.465Z,8.90
2018-06-17T05:59:10.553Z,7.87
2018-06-17T06:01:38.872Z,7.90
2018-06-17T06:04:07.306Z,7.77
2018-06-17T06:06:35.575Z,7.57
2018-06-17T06:09:05.796Z,6.37
2018-06-17T06:11:33.874Z,5.43
2018-06-17T06:14:01.960Z,6.13
2018-06-17T06:16:30.279Z,5.53
2018-06-17T06:18:58.696Z,5.80
2018-06-17T06:21:27.063Z,6.30
2018-06-17T06:23:55.399Z,5.90
2018-06-17T06:26:23.756Z,5.20
2018-06-17T06:28:52.108Z,5.53
2018-06-17T06:31:20.416Z,5.53
2018-06-17T06:33:49.196Z,4.97
2018-06-17T06:36:17.859Z,5.20
2018-06-17T06:38:46.207Z,5.53
2018-06-17T06:41:14.534Z,4.57
2018-06-17T06:43:42.602Z,4.20
2018-06-17T06:46:10.750Z,3.80
2018-06-17T06:48:39.099Z,4.07
2018-06-17T06:51:07.469Z,4.33
2018-06-17T06:53:35.799Z,4.20
2018-06-17T06:56:04.197Z,4.03
2018-06-17T06:58:32.521Z,3.80
2018-06-17T07:01:00.876Z,4.10
2018-06-17T07:03:40.702Z,4.27
2018-06-17T07:06:14.404Z,3.83
2018-06-17T07:08:54.059Z,4.10
2018-06-17T07:11:22.408Z,3.90
2018-06-17T07:13:50.732Z,3.77
2018-06-17T07:16:30.455Z,3.73
2018-06-17T07:18:58.527Z,3.70
2018-06-17T07:21:26.572Z,3.83
2018-06-17T07:23:54.909Z,3.37
2018-06-17T07:26:37.812Z,3.70
2018-06-17T07:29:17.967Z,3.20
2018-06-17T07:31:46.291Z,3.33
2018-06-17T07:34:15.208Z,3.17
2018-06-17T07:36:43.755Z,3.63
2018-06-17T07:41:26.122Z,3.10
2018-06-17T07:43:54.489Z,3.30
2018-06-17T07:46:22.818Z,3.03
2018-06-17T07:49:29.967Z,2.80
2018-06-17T07:52:03.627Z,3.13
2018-06-17T07:54:31.940Z,2.87
2018-06-17T07:57:00.655Z,2.80
2018-06-17T07:59:29.022Z,3.20
2018-06-17T08:01:57.111Z,2.63
2018-06-17T08:04:25.620Z,3.07
2018-06-17T08:06:54.831Z,2.83
2018-06-17T08:09:23.362Z,2.67
2018-06-17T08:11:51.872Z,2.67
2018-06-17T08:14:20.213Z,2.60
2018-06-17T08:16:48.672Z,2.53
2018-06-17T08:19:17.110Z,2.43
2018-06-17T08:21:45.581Z,2.53
2018-06-17T08:24:13.931Z,2.07
2018-06-17T08:26:42.482Z,2.43
2018-06-17T08:29:10.833Z,2.13
2018-06-17T08:31:39.225Z,2.13
2018-06-17T08:34:07.590Z,2.00
2018-06-17T08:36:35.957Z,2.43
2018-06-17T08:39:06.980Z,2.00
2018-06-17T08:41:37.597Z,2.10
2018-06-17T08:44:08.290Z,2.10
2018-06-17T08:46:36.766Z,2.03
2018-06-17T08:49:05.308Z,2.10
2018-06-17T08:51:33.640Z,1.97
2018-06-17T08:54:02.018Z,2.17
2018-06-17T08:56:30.439Z,1.90
2018-06-17T08:58:59.786Z,2.20
2018-06-17T09:01:28.196Z,2.37
2018-06-17T09:03:56.577Z,2.17
2018-06-17T09:06:25.205Z,1.93
2018-06-17T09:08:53.719Z,2.30
2018-06-17T09:11:22.663Z,2.10
2018-06-17T09:13:51.595Z,2.10
2018-06-17T09:16:20.068Z,2.17
2018-06-17T09:18:48.433Z,2.17
2018-06-17T09:21:16.579Z,2.07
2018-06-17T09:23:44.966Z,2.10
2018-06-17T09:26:13.379Z,2.07
2018-06-17T09:28:41.765Z,2.00
2018-06-17T09:31:10.144Z,2.20
2018-06-17T09:33:38.511Z,2.13
2018-06-17T09:36:06.863Z,1.90
2018-06-17T09:38:35.245Z,1.93
2018-06-17T09:41:03.615Z,1.80
2018-06-17T09:43:31.990Z,1.90
2018-06-17T09:46:00.345Z,1.73
2018-06-17T09:48:28.720Z,1.90
2018-06-17T09:50:57.066Z,1.87
2018-06-17T09:53:25.236Z,1.83
2018-06-17T09:55:53.304Z,1.90
2018-06-17T09:58:21.435Z,2.17
2018-06-17T10:00:49.783Z,2.00
2018-06-17T10:03:18.152Z,1.90
2018-06-17T10:05:46.508Z,1.80
2018-06-17T10:08:14.872Z,1.90
2018-06-17T10:10:46.244Z,1.80
2018-06-17T10:13:15.368Z,1.80
2018-06-17T10:15:44.540Z,2.20
2018-06-17T10:18:13.389Z,2.17
2018-06-17T10:20:41.768Z,2.00
2018-06-17T10:23:10.453Z,2.10
2018-06-17T10:25:38.824Z,1.93
2018-06-17T10:28:08.227Z,2.00
2018-06-17T10:30:37.856Z,2.07
2018-06-17T10:33:07.069Z,2.30
2018-06-17T10:35:35.444Z,2.10
2018-06-17T10:38:03.865Z,2.00
2018-06-17T10:40:32.196Z,5.43
2018-06-17T10:43:00.530Z,1.97
2018-06-17T10:45:28.928Z,1.90
2018-06-17T10:47:57.261Z,2.30
2018-06-17T10:50:25.717Z,2.00
2018-06-17T10:52:54.029Z,2.10
2018-06-17T10:55:22.116Z,2.70
2018-06-17T10:57:50.447Z,2.73
2018-06-17T11:00:18.803Z,2.00
2018-06-17T11:02:47.118Z,1.80
2018-06-17T11:05:15.525Z,2.00
2018-06-17T11:07:44.527Z,2.00
2018-06-17T11:10:12.925Z,2.00
2018-06-17T11:12:41.252Z,2.00
2018-06-17T11:15:09.611Z,1.90
2018-06-17T11:17:37.960Z,2.03
2018-06-17T11:20:07.143Z,2.27
2018-06-17T11:22:35.552Z,2.60
2018-06-17T11:25:03.944Z,2.10
2018-06-17T11:27:32.287Z,2.50
2018-06-17T11:30:00.634Z,2.40
2018-06-17T11:32:28.964Z,2.20
2018-06-17T11:34:57.319Z,2.30
2018-06-17T11:37:25.646Z,2.57
2018-06-17T11:39:54.059Z,2.30
2018-06-17T11:42:22.115Z,2.17
2018-06-17T11:44:50.471Z,2.23
2018-06-17T11:47:18.787Z,2.67
2018-06-17T11:49:47.135Z,2.00
2018-06-17T11:52:15.466Z,2.43
2018-06-17T11:54:43.816Z,2.40
2018-06-17T11:57:11.939Z,2.40
2018-06-17T11:59:40.307Z,2.40
2018-06-17T12:02:08.656Z,2.33
2018-06-17T12:04:37.000Z,2.50
2018-06-17T12:07:05.715Z,2.20
2018-06-17T12:09:34.150Z,2.40
2018-06-17T12:12:02.512Z,2.30
2018-06-17T12:14:30.835Z,2.23
2018-06-17T12:16:59.196Z,2.07
2018-06-17T12:19:27.522Z,2.43
2018-06-17T12:21:55.618Z,2.17
2018-06-17T12:24:23.960Z,2.20
2018-06-17T12:26:52.312Z,2.27
2018-06-17T12:29:20.628Z,2.30
2018-06-17T12:31:48.995Z,2.10
2018-06-17T12:34:17.334Z,2.30
2018-06-17T12:36:45.680Z,2.43
2018-06-17T12:39:14.343Z,2.53
2018-06-17T12:41:42.733Z,2.40
2018-06-17T12:44:10.803Z,2.40
2018-06-17T12:46:38.890Z,2.50
2018-06-17T12:49:07.016Z,2.10
2018-06-17T12:51:35.321Z,2.23
2018-06-17T12:54:03.376Z,2.40
2018-06-17T12:56:31.727Z,2.30
2018-06-17T12:59:00.047Z,2.63
2018-06-17T13:01:28.432Z,2.50
2018-06-17T13:03:56.543Z,2.60
2018-06-17T13:06:24.891Z,2.30
2018-06-17T13:08:52.942Z,2.10
2018-06-17T13:11:21.332Z,2.53
2018-06-17T13:13:49.732Z,2.07
2018-06-17T13:16:17.819Z,2.70
2018-06-17T13:18:46.145Z,2.23
2018-06-17T13:21:14.501Z,2.77
2018-06-17T13:23:42.837Z,2.67
2018-06-17T13:26:10.970Z,2.60
2018-06-17T13:28:39.284Z,2.43
2018-06-17T13:31:07.712Z,2.20
2018-06-17T13:33:36.036Z,2.23
2018-06-17T13:36:04.393Z,2.50
2018-06-17T13:38:32.719Z,2.60
2018-06-17T13:41:01.074Z,2.37
2018-06-17T13:43:29.130Z,2.50
2018-06-17T13:45:57.489Z,2.60
2018-06-17T13:48:25.811Z,2.40
2018-06-17T13:50:54.168Z,2.50
2018-06-17T13:53:22.495Z,2.80
2018-06-17T13:55:50.836Z,2.60
2018-06-17T13:58:19.196Z,2.83
2018-06-17T14:00:47.599Z,2.37
2018-06-17T14:03:15.960Z,2.47
2018-06-17T14:05:44.296Z,2.30
2018-06-17T14:08:12.656Z,2.77
2018-06-17T14:10:41.020Z,2.33
2018-06-17T14:13:09.107Z,2.57
2018-06-17T14:15:37.159Z,2.30
2018-06-17T14:18:05.589Z,2.20
2018-06-17T14:20:34.036Z,2.53
2018-06-17T14:23:02.125Z,2.47
2018-06-17T14:25:30.439Z,2.63
2018-06-17T14:27:58.815Z,2.47
2018-06-17T14:30:27.135Z,2.00
2018-06-17T14:32:55.297Z,2.30
2018-06-17T14:35:23.620Z,2.50
2018-06-17T14:37:51.972Z,2.60
2018-06-17T14:40:20.291Z,2.40
2018-06-17T14:42:53.959Z,2.40
2018-06-17T14:45:27.407Z,2.80
2018-06-17T14:48:01.250Z,2.50
2018-06-17T14:50:34.952Z,2.57
2018-06-17T14:53:04.287Z,2.73
2018-06-17T14:55:33.048Z,1.97
2018-06-17T14:58:01.475Z,2.50
2018-06-17T15:00:29.784Z,2.63
2018-06-17T15:02:58.140Z,2.37
2018-06-17T15:05:26.452Z,2.40
2018-06-17T15:07:54.815Z,2.60
2018-06-17T15:10:23.252Z,2.70
2018-06-17T15:12:51.644Z,2.10
2018-06-17T15:15:19.981Z,2.17
2018-06-17T15:17:48.320Z,2.10
2018-06-17T15:20:16.635Z,2.33
2018-06-17T15:22:44.984Z,2.27
2018-06-17T15:25:13.295Z,2.50
2018-06-17T15:27:41.632Z,2.50
2018-06-17T15:30:09.997Z,2.30
2018-06-17T15:32:43.624Z,3.13
2018-06-17T15:35:17.284Z,2.40
2018-06-17T15:37:50.930Z,2.70
2018-06-17T15:40:23.493Z,2.97
2018-06-17T15:42:51.848Z,2.80
2018-06-17T15:45:20.169Z,2.67
2018-06-17T15:47:48.511Z,2.60
2018-06-17T15:50:16.823Z,2.50
2018-06-17T15:52:45.195Z,2.70
2018-06-17T15:55:13.600Z,2.60
2018-06-17T15:57:41.892Z,2.40
2018-06-17T16:00:10.243Z,2.33
2018-06-17T16:02:38.579Z,3.07
2018-06-17T16:05:06.933Z,2.40
2018-06-17T16:07:34.984Z,2.47
2018-06-17T16:10:03.394Z,2.50
2018-06-17T16:12:37.180Z,2.40
2018-06-17T16:15:10.960Z,2.83
2018-06-17T16:18:48.322Z,2.97
2018-06-17T16:21:16.648Z,2.70
2018-06-17T16:23:44.993Z,2.63
2018-06-17T16:26:13.311Z,2.43
2018-06-17T16:28:41.715Z,2.30
2018-06-17T16:31:09.758Z,2.93
2018-06-17T16:33:38.107Z,3.33
2018-06-17T16:36:06.441Z,3.30
2018-06-17T16:38:34.784Z,3.33
2018-06-17T16:41:03.103Z,3.93
2018-06-17T16:43:31.466Z,3.07
2018-06-17T16:45:59.785Z,3.17
2018-06-17T16:48:28.091Z,2.90
2018-06-17T16:51:01.759Z,2.73
2018-06-17T16:53:35.375Z,2.97
2018-06-17T16:56:09.059Z,2.80
2018-06-17T16:58:42.712Z,3.10
2018-06-17T17:01:11.091Z,2.90
2018-06-17T17:03:39.420Z,3.00
2018-06-17T17:06:07.778Z,3.70
2018-06-17T17:08:36.105Z,2.87
2018-06-17T17:11:04.512Z,2.77
2018-06-17T17:13:32.906Z,3.50
2018-06-17T17:16:01.229Z,2.70
2018-06-17T17:18:29.551Z,2.77
2018-06-17T17:20:57.914Z,2.80
2018-06-17T17:23:26.336Z,3.00
2018-06-17T17:25:54.621Z,2.83
2018-06-17T17:28:22.674Z,3.00
2018-06-17T17:30:51.030Z,2.80
2018-06-17T17:33:24.792Z,3.23
2018-06-17T17:35:58.494Z,2.83
2018-06-17T17:38:32.905Z,2.87
2018-06-17T17:41:03.059Z,3.30
2018-06-17T17:43:31.371Z,3.50
2018-06-17T17:46:05.155Z,3.47
2018-06-17T17:48:33.485Z,3.97
2018-06-17T17:51:02.063Z,3.67
2018-06-17T17:53:30.500Z,9.43
2018-06-17T17:55:58.915Z,3.40
2018-06-17T17:58:27.504Z,3.97
2018-06-17T18:00:55.905Z,3.13
2018-06-17T18:03:24.235Z,4.77
2018-06-17T18:05:52.610Z,3.30
2018-06-17T18:08:20.968Z,4.03
2018-06-17T18:10:49.636Z,3.53
2018-06-17T18:13:17.970Z,3.20
2018-06-17T18:15:46.328Z,3.30
2018-06-17T18:18:14.653Z,2.97
2018-06-17T18:20:42.740Z,3.00
2018-06-17T18:23:11.098Z,3.10
2018-06-17T18:25:44.975Z,3.10
2018-06-17T18:28:18.595Z,3.37
2018-06-17T18:30:53.035Z,3.27
2018-06-17T18:33:26.835Z,3.27
2018-06-17T18:36:00.599Z,3.20
2018-06-17T18:38:28.935Z,3.13
2018-06-17T18:40:57.025Z,3.17
2018-06-17T18:43:25.377Z,3.17
2018-06-17T18:45:53.531Z,3.63
2018-06-17T18:48:21.894Z,2.90
2018-06-17T18:50:50.220Z,3.07
2018-06-17T18:53:20.215Z,3.30
2018-06-17T18:55:48.527Z,3.27
2018-06-17T18:58:16.871Z,3.27
2018-06-17T19:00:45.179Z,2.90
2018-06-17T19:03:13.624Z,3.23
2018-06-17T19:05:41.932Z,2.97
2018-06-17T19:08:15.373Z,3.43
2018-06-17T19:10:49.203Z,3.00
2018-06-17T19:13:23.005Z,3.70
2018-06-17T19:15:56.720Z,3.37
2018-06-17T19:18:25.451Z,3.40
2018-06-17T19:20:54.101Z,3.53
2018-06-17T19:23:22.496Z,3.87
2018-06-17T19:25:50.562Z,3.50
2018-06-17T19:28:18.920Z,4.97
2018-06-17T19:30:47.265Z,4.50
2018-06-17T19:33:15.612Z,3.70
2018-06-17T19:35:43.927Z,3.40
2018-06-17T19:38:12.275Z,3.63
2018-06-17T19:40:40.606Z,3.40
2018-06-17T19:43:08.972Z,3.70
2018-06-17T19:45:37.376Z,3.90
2018-06-17T19:48:05.695Z,3.77
2018-06-17T19:50:39.528Z,4.03
2018-06-17T19:53:13.324Z,4.03
2018-06-17T19:55:47.039Z,3.63
2018-06-17T19:58:21.344Z,4.60
2018-06-17T20:00:52.724Z,3.70
2018-06-17T20:03:22.544Z,3.60
2018-06-17T20:05:50.951Z,4.03
2018-06-17T20:08:19.380Z,3.67
2018-06-17T20:10:48.003Z,3.90
2018-06-17T20:13:16.355Z,4.37
2018-06-17T20:15:44.684Z,4.80
2018-06-17T20:18:13.057Z,4.70
2018-06-17T20:20:41.127Z,4.57
2018-06-17T20:23:09.648Z,4.30
2018-06-17T20:25:37.989Z,3.60
2018-06-17T20:28:06.370Z,4.47
2018-06-17T20:30:34.699Z,3.97
2018-06-17T20:33:09.773Z,4.73
2018-06-17T20:35:43.895Z,4.40
2018-06-17T20:38:17.560Z,4.07
2018-06-17T20:40:51.204Z,4.60
2018-06-17T20:43:25.042Z,4.67
2018-06-17T20:45:53.475Z,4.40
2018-06-17T20:48:21.831Z,5.17
2018-06-17T20:50:50.252Z,5.20
2018-06-17T20:53:18.604Z,4.70
2018-06-17T20:55:46.960Z,5.20
2018-06-17T20:58:15.337Z,4.83
2018-06-17T21:00:43.680Z,4.83
2018-06-17T21:03:11.738Z,4.50
2018-06-17T21:05:39.847Z,5.10
2018-06-17T21:08:08.174Z,4.73
2018-06-17T21:10:36.644Z,4.90
2018-06-17T21:13:05.039Z,5.47
2018-06-17T21:15:33.391Z,5.17
2018-06-17T21:18:01.709Z,4.80
2018-06-17T21:20:35.472Z,5.20
2018-06-17T21:23:09.135Z,4.90
2018-06-17T21:25:42.719Z,5.53
2018-06-17T21:28:11.042Z,5.40
2018-06-17T21:30:39.411Z,5.67
2018-06-17T21:33:07.738Z,5.97
2018-06-17T21:35:36.904Z,5.37
2018-06-17T21:38:05.355Z,5.53
2018-06-17T21:40:33.695Z,5.23
2018-06-17T21:43:02.040Z,5.20
2018-06-17T21:45:30.358Z,5.00
2018-06-17T21:47:58.715Z,4.77
2018-06-17T21:50:27.031Z,4.50
2018-06-17T21:52:55.377Z,4.77
2018-06-17T21:55:23.694Z,4.23
2018-06-17T21:57:51.784Z,4.93
2018-06-17T22:00:19.834Z,4.80
2018-06-17T22:02:48.178Z,4.47
2018-06-17T22:05:16.500Z,4.63
2018-06-17T22:07:50.079Z,4.53
2018-06-17T22:10:23.907Z,5.00
2018-06-17T22:12:57.539Z,4.83
2018-06-17T22:15:31.316Z,4.43
2018-06-17T22:17:59.394Z,4.33
2018-06-17T22:20:27.438Z,4.53
2018-06-17T22:22:55.792Z,4.60
2018-06-17T22:25:24.104Z,4.40
2018-06-17T22:27:52.456Z,4.50
2018-06-17T22:30:20.781Z,4.17
2018-06-17T22:32:48.867Z,3.83
2018-06-17T22:35:17.179Z,3.57
2018-06-17T22:37:45.532Z,4.07
2018-06-17T22:40:13.866Z,4.20
2018-06-17T22:42:42.228Z,3.83
2018-06-17T22:45:10.585Z,3.70
2018-06-17T22:47:44.219Z,3.90
2018-06-17T22:50:12.743Z,4.03
2018-06-17T22:52:52.435Z,3.80
2018-06-17T22:55:20.779Z,4.03
2018-06-17T22:57:54.615Z,3.93
2018-06-17T23:00:28.224Z,4.07
2018-06-17T23:03:01.970Z,3.90
2018-06-17T23:05:35.613Z,4.10
2018-06-17T23:08:09.441Z,4.07
2018-06-17T23:10:37.776Z,4.00
2018-06-17T23:13:06.232Z,3.80
2018-06-17T23:15:34.548Z,4.00
2018-06-17T23:18:02.900Z,4.40
2018-06-17T23:20:30.963Z,3.90
2018-06-17T23:22:59.051Z,4.50
2018-06-17T23:25:27.112Z,4.07
2018-06-17T23:27:55.427Z,4.37
2018-06-17T23:30:23.784Z,4.53
2018-06-17T23:32:52.131Z,3.87
2018-06-17T23:35:20.504Z,4.20
2018-06-17T23:37:48.829Z,4.20
2018-06-17T23:40:17.184Z,3.97
2018-06-17T23:42:45.258Z,4.30
2018-06-17T23:45:13.341Z,4.03
2018-06-17T23:48:46.455Z,4.00
2018-06-17T23:51:20.231Z,4.30
2018-06-17T23:53:53.904Z,4.27
2018-06-17T23:56:22.237Z,4.03
2018-06-17T23:58:50.580Z,4.70
